createdAt,value
2017-11-05T00:00:15.959Z,971.1
2017-11-05T00:01:18.010Z,971.1
2017-11-05T00:02:19.988Z,971.1
2017-11-05T00:03:21.931Z,971.1
2017-11-05T00:04:23.843Z,971.1
2017-11-05T00:05:25.717Z,971.1
2017-11-05T00:06:27.606Z,971.2
2017-11-05T00:07:29.537Z,971.1
2017-11-05T00:08:31.454Z,971.1
2017-11-05T00:09:33.421Z,971.1
2017-11-05T00:10:35.373Z,971.1
2017-11-05T00:11:37.258Z,971.1
2017-11-05T00:12:39.218Z,971.1
2017-11-05T00:13:41.122Z,971.1
2017-11-05T00:14:42.989Z,971.1
2017-11-05T00:15:44.977Z,971
2017-11-05T00:16:46.922Z,971.1
2017-11-05T00:17:49.121Z,971
2017-11-05T00:18:51.095Z,971
2017-11-05T00:19:52.975Z,970.9
2017-11-05T00:20:54.862Z,971
2017-11-05T00:21:56.749Z,971.1
2017-11-05T00:22:58.964Z,971
2017-11-05T00:24:00.866Z,970.9
2017-11-05T00:25:03.087Z,970.9
2017-11-05T00:26:05.001Z,970.9
2017-11-05T00:27:06.911Z,970.9
2017-11-05T00:28:09.205Z,970.9
2017-11-05T00:29:11.226Z,971
2017-11-05T00:30:13.170Z,971
2017-11-05T00:31:15.098Z,971
2017-11-05T00:32:17.333Z,971.1
2017-11-05T00:33:19.660Z,971.1
2017-11-05T00:34:21.594Z,971.1
2017-11-05T00:35:23.549Z,971
2017-11-05T00:36:25.455Z,971.1
2017-11-05T00:37:27.682Z,971
2017-11-05T00:38:29.979Z,971
2017-11-05T00:39:32.078Z,971.1
2017-11-05T00:40:34.025Z,971.1
2017-11-05T00:41:35.896Z,971
2017-11-05T00:42:37.827Z,971.1
2017-11-05T00:43:40.017Z,971.1
2017-11-05T00:44:42.001Z,971.1
2017-11-05T00:45:43.909Z,971.2
2017-11-05T00:46:45.951Z,971.1
2017-11-05T00:47:47.866Z,971.1
2017-11-05T00:48:49.809Z,971
2017-11-05T00:49:51.722Z,971.1
2017-11-05T00:50:53.581Z,971.1
2017-11-05T00:51:55.486Z,971.1
2017-11-05T00:52:57.415Z,971
2017-11-05T00:53:59.385Z,971
2017-11-05T00:55:01.329Z,971.1
2017-11-05T00:56:03.233Z,971
2017-11-05T00:57:05.248Z,971
2017-11-05T00:58:07.240Z,971
2017-11-05T00:59:09.206Z,971
2017-11-05T01:00:11.205Z,971.1
2017-11-05T01:01:13.157Z,971.1
2017-11-05T01:02:15.104Z,971.1
2017-11-05T01:03:17.109Z,971.1
2017-11-05T01:04:19.337Z,971
2017-11-05T01:05:21.281Z,971.1
2017-11-05T01:06:23.130Z,971.2
2017-11-05T01:07:24.949Z,971.1
2017-11-05T01:08:26.847Z,971.1
2017-11-05T01:09:28.720Z,971
2017-11-05T01:10:30.619Z,971.1
2017-11-05T01:11:32.639Z,971
2017-11-05T01:12:34.510Z,971
2017-11-05T01:13:36.401Z,971
2017-11-05T01:14:38.363Z,970.9
2017-11-05T01:15:40.346Z,970.8
2017-11-05T01:16:42.284Z,970.9
2017-11-05T01:17:44.218Z,970.8
2017-11-05T01:18:46.147Z,970.9
2017-11-05T01:19:48.334Z,970.9
2017-11-05T01:20:50.215Z,971
2017-11-05T01:21:52.127Z,970.9
2017-11-05T01:22:54.046Z,970.9
2017-11-05T01:23:55.910Z,970.8
2017-11-05T01:24:57.826Z,970.8
2017-11-05T01:25:59.752Z,970.8
2017-11-05T01:27:01.674Z,970.9
2017-11-05T01:28:03.601Z,970.9
2017-11-05T01:29:05.535Z,970.9
2017-11-05T01:30:07.519Z,970.9
2017-11-05T01:31:09.413Z,970.8
2017-11-05T01:32:11.342Z,970.8
2017-11-05T01:33:13.472Z,970.9
2017-11-05T01:34:15.385Z,970.9
2017-11-05T01:35:17.281Z,970.9
2017-11-05T01:36:19.200Z,970.9
2017-11-05T01:37:21.129Z,970.9
2017-11-05T01:38:23.046Z,970.9
2017-11-05T01:39:24.899Z,970.7
2017-11-05T01:40:27.112Z,970.8
2017-11-05T01:41:29.081Z,970.8
2017-11-05T01:42:31.018Z,970.8
2017-11-05T01:43:32.917Z,970.8
2017-11-05T01:44:34.865Z,970.8
2017-11-05T01:45:36.780Z,970.8
2017-11-05T01:46:38.669Z,970.8
2017-11-05T01:47:40.622Z,970.8
2017-11-05T01:48:42.540Z,970.7
2017-11-05T01:49:44.469Z,970.7
2017-11-05T01:50:46.391Z,970.7
2017-11-05T01:51:48.308Z,970.7
2017-11-05T01:52:50.252Z,970.7
2017-11-05T01:53:52.178Z,970.7
2017-11-05T01:54:54.095Z,970.6
2017-11-05T01:55:56.057Z,970.7
2017-11-05T01:56:58.240Z,970.6
2017-11-05T01:58:00.133Z,970.6
2017-11-05T01:59:02.079Z,970.7
2017-11-05T02:00:04.042Z,970.6
2017-11-05T02:01:05.931Z,970.5
2017-11-05T02:02:07.841Z,970.5
2017-11-05T02:03:09.936Z,970.5
2017-11-05T02:04:11.852Z,970.4
2017-11-05T02:05:13.730Z,970.4
2017-11-05T02:06:15.618Z,970.4
2017-11-05T02:07:17.534Z,970.4
2017-11-05T02:08:19.498Z,970.3
2017-11-05T02:09:21.348Z,970.3
2017-11-05T02:10:23.217Z,970.2
2017-11-05T02:11:25.204Z,970.2
2017-11-05T02:12:27.111Z,970.3
2017-11-05T02:13:29.036Z,970.2
2017-11-05T02:14:30.888Z,970.2
2017-11-05T02:15:32.798Z,970.2
2017-11-05T02:16:34.754Z,970.2
2017-11-05T02:17:36.708Z,970.2
2017-11-05T02:18:38.697Z,970.2
2017-11-05T02:19:40.533Z,970.2
2017-11-05T02:20:42.492Z,970.1
2017-11-05T02:21:44.478Z,970.1
2017-11-05T02:22:46.387Z,970.1
2017-11-05T02:23:48.409Z,970.1
2017-11-05T02:24:50.334Z,970.1
2017-11-05T02:25:52.229Z,970.2
2017-11-05T02:26:54.142Z,970.2
2017-11-05T02:27:56.033Z,970.1
2017-11-05T02:28:58.000Z,970.2
2017-11-05T02:29:59.896Z,970.3
2017-11-05T02:31:01.852Z,970.3
2017-11-05T02:32:04.002Z,970.2
2017-11-05T02:33:06.186Z,970.1
2017-11-05T02:34:08.105Z,970.1
2017-11-05T02:35:10.027Z,970
2017-11-05T02:36:11.945Z,970
2017-11-05T02:37:13.903Z,970
2017-11-05T02:38:15.779Z,969.9
2017-11-05T02:39:17.746Z,969.9
2017-11-05T02:40:19.703Z,969.9
2017-11-05T02:41:21.749Z,969.8
2017-11-05T02:42:23.975Z,969.8
2017-11-05T02:43:25.902Z,969.7
2017-11-05T02:44:27.813Z,969.7
2017-11-05T02:45:29.681Z,969.7
2017-11-05T02:46:31.648Z,969.7
2017-11-05T02:47:33.548Z,969.7
2017-11-05T02:48:35.447Z,969.7
2017-11-05T02:49:37.314Z,969.7
2017-11-05T02:50:39.209Z,969.7
2017-11-05T02:51:41.076Z,969.7
2017-11-05T02:52:43.374Z,969.6
2017-11-05T02:53:45.224Z,969.6
2017-11-05T02:54:47.132Z,969.7
2017-11-05T02:55:49.008Z,969.7
2017-11-05T02:56:50.895Z,969.7
2017-11-05T02:57:52.781Z,969.6
2017-11-05T02:58:54.689Z,969.6
2017-11-05T02:59:56.581Z,969.7
2017-11-05T03:00:58.501Z,969.7
2017-11-05T03:02:00.453Z,969.7
2017-11-05T03:03:02.745Z,969.6
2017-11-05T03:04:04.641Z,969.6
2017-11-05T03:05:06.564Z,969.7
2017-11-05T03:06:08.497Z,969.6
2017-11-05T03:07:10.394Z,969.6
2017-11-05T03:08:12.370Z,969.6
2017-11-05T03:09:14.322Z,969.7
2017-11-05T03:10:16.194Z,969.6
2017-11-05T03:11:18.047Z,969.7
2017-11-05T03:12:20.021Z,969.7
2017-11-05T03:13:22.304Z,969.7
2017-11-05T03:14:24.248Z,969.6
2017-11-05T03:15:26.193Z,969.6
2017-11-05T03:16:28.155Z,969.6
2017-11-05T03:17:30.153Z,969.6
2017-11-05T03:18:32.070Z,969.6
2017-11-05T03:19:33.977Z,969.6
2017-11-05T03:20:35.894Z,969.6
2017-11-05T03:21:37.777Z,969.6
2017-11-05T03:22:39.636Z,969.6
2017-11-05T03:23:41.821Z,969.7
2017-11-05T03:24:43.739Z,969.7
2017-11-05T03:25:45.615Z,969.6
2017-11-05T03:26:47.536Z,969.7
2017-11-05T03:27:49.513Z,969.7
2017-11-05T03:28:51.414Z,969.7
2017-11-05T03:29:53.252Z,969.7
2017-11-05T03:30:55.135Z,969.7
2017-11-05T03:31:57.100Z,969.6
2017-11-05T03:32:58.973Z,969.6
2017-11-05T03:34:00.929Z,969.6
2017-11-05T03:35:02.795Z,969.7
2017-11-05T03:36:04.729Z,969.7
2017-11-05T03:37:06.667Z,969.7
2017-11-05T03:38:08.583Z,969.6
2017-11-05T03:39:10.558Z,969.7
2017-11-05T03:40:12.458Z,969.6
2017-11-05T03:41:14.404Z,969.6
2017-11-05T03:42:16.344Z,969.6
2017-11-05T03:43:18.260Z,969.6
2017-11-05T03:44:20.191Z,969.6
2017-11-05T03:45:22.189Z,969.6
2017-11-05T03:46:24.062Z,969.6
2017-11-05T03:47:25.893Z,969.6
2017-11-05T03:48:27.744Z,969.6
2017-11-05T03:49:29.674Z,969.6
2017-11-05T03:50:31.592Z,969.5
2017-11-05T03:51:33.500Z,969.5
2017-11-05T03:52:35.456Z,969.6
2017-11-05T03:53:37.402Z,969.6
2017-11-05T03:54:39.755Z,969.5
2017-11-05T03:55:41.634Z,969.5
2017-11-05T03:56:43.586Z,969.5
2017-11-05T03:57:45.494Z,969.4
2017-11-05T03:58:47.327Z,969.5
2017-11-05T03:59:49.259Z,969.4
2017-11-05T04:00:51.194Z,969.4
2017-11-05T04:01:53.096Z,969.4
2017-11-05T04:02:55.003Z,969.4
2017-11-05T04:03:56.992Z,969.4
2017-11-05T04:04:59.169Z,969.4
2017-11-05T04:06:01.297Z,969.3
2017-11-05T04:07:03.325Z,969.3
2017-11-05T04:08:05.256Z,969.3
2017-11-05T04:09:07.127Z,969.3
2017-11-05T04:10:09.292Z,969.3
2017-11-05T04:11:11.181Z,969.3
2017-11-05T04:12:13.053Z,969.3
2017-11-05T04:13:14.951Z,969.3
2017-11-05T04:14:16.866Z,969.3
2017-11-05T04:15:19.079Z,969.2
2017-11-05T04:16:20.936Z,969.2
2017-11-05T04:17:22.890Z,969.3
2017-11-05T04:18:24.761Z,969.3
2017-11-05T04:19:26.641Z,969.2
2017-11-05T04:20:28.625Z,969.3
2017-11-05T04:21:30.582Z,969.2
2017-11-05T04:22:32.442Z,969.3
2017-11-05T04:23:34.395Z,969.2
2017-11-05T04:24:36.276Z,969.3
2017-11-05T04:25:38.162Z,969.2
2017-11-05T04:26:40.114Z,969.2
2017-11-05T04:27:41.984Z,969.3
2017-11-05T04:28:43.825Z,969.2
2017-11-05T04:29:45.736Z,969.3
2017-11-05T04:30:47.687Z,969.3
2017-11-05T04:31:49.554Z,969.2
2017-11-05T04:32:51.491Z,969.3
2017-11-05T04:33:53.447Z,969.3
2017-11-05T04:34:55.293Z,969.2
2017-11-05T04:35:57.464Z,969.2
2017-11-05T04:36:59.396Z,969.3
2017-11-05T04:38:01.340Z,969.3
2017-11-05T04:39:03.252Z,969.3
2017-11-05T04:40:05.099Z,969.3
2017-11-05T04:41:07.292Z,969.3
2017-11-05T04:42:09.217Z,969.4
2017-11-05T04:43:11.135Z,969.4
2017-11-05T04:44:13.310Z,969.3
2017-11-05T04:45:15.338Z,969.2
2017-11-05T04:46:17.567Z,969.3
2017-11-05T04:47:19.508Z,969.2
2017-11-05T04:48:21.399Z,969.3
2017-11-05T04:49:23.324Z,969.2
2017-11-05T04:50:25.263Z,969.2
2017-11-05T04:51:27.195Z,969.2
2017-11-05T04:52:29.090Z,969.2
2017-11-05T04:53:31.139Z,969.3
2017-11-05T04:54:33.030Z,969.3
2017-11-05T04:55:34.933Z,969.2
2017-11-05T04:56:36.849Z,969.2
2017-11-05T04:57:38.713Z,969.2
2017-11-05T04:58:40.706Z,969.2
2017-11-05T04:59:42.575Z,969.2
2017-11-05T05:00:44.432Z,969.2
2017-11-05T05:01:46.356Z,969.2
2017-11-05T05:02:48.244Z,969.2
2017-11-05T05:03:50.151Z,969.3
2017-11-05T05:04:52.069Z,969.2
2017-11-05T05:05:53.949Z,969.2
2017-11-05T05:06:56.167Z,969.2
2017-11-05T05:07:58.077Z,969.2
2017-11-05T05:08:59.925Z,969.1
2017-11-05T05:10:01.770Z,969
2017-11-05T05:11:03.679Z,969.2
2017-11-05T05:12:05.648Z,969
2017-11-05T05:13:07.567Z,969
2017-11-05T05:14:09.461Z,969.1
2017-11-05T05:15:11.338Z,969
2017-11-05T05:16:13.270Z,969
2017-11-05T05:17:15.183Z,969
2017-11-05T05:18:17.165Z,969
2017-11-05T05:19:19.310Z,969
2017-11-05T05:20:21.204Z,969.1
2017-11-05T05:21:23.152Z,969.1
2017-11-05T05:22:25.420Z,969.1
2017-11-05T05:23:27.348Z,969
2017-11-05T05:24:29.257Z,969
2017-11-05T05:25:31.169Z,969.1
2017-11-05T05:26:33.051Z,969
2017-11-05T05:27:35.285Z,969
2017-11-05T05:28:37.162Z,969.1
2017-11-05T05:29:39.112Z,969.1
2017-11-05T05:30:41.009Z,969
2017-11-05T05:31:42.887Z,969
2017-11-05T05:32:44.771Z,969
2017-11-05T05:33:46.619Z,969.1
2017-11-05T05:34:48.513Z,969
2017-11-05T05:35:50.410Z,969
2017-11-05T05:36:52.274Z,969
2017-11-05T05:37:54.298Z,968.9
2017-11-05T05:38:56.254Z,969
2017-11-05T05:39:58.159Z,969.1
2017-11-05T05:41:00.097Z,969
2017-11-05T05:42:02.226Z,969
2017-11-05T05:43:04.182Z,969
2017-11-05T05:44:06.069Z,969
2017-11-05T05:45:08.117Z,969
2017-11-05T05:46:10.061Z,968.9
2017-11-05T05:47:11.952Z,968.8
2017-11-05T05:48:14.034Z,968.9
2017-11-05T05:49:16.004Z,968.9
2017-11-05T05:50:17.878Z,968.8
2017-11-05T05:51:19.789Z,968.8
2017-11-05T05:52:21.651Z,968.9
2017-11-05T05:53:23.602Z,968.9
2017-11-05T05:54:25.478Z,968.9
2017-11-05T05:55:27.350Z,968.9
2017-11-05T05:56:29.291Z,968.9
2017-11-05T05:57:31.233Z,968.9
2017-11-05T05:58:33.480Z,969
2017-11-05T05:59:35.384Z,968.9
2017-11-05T06:00:37.274Z,969
2017-11-05T06:01:39.096Z,968.9
2017-11-05T06:02:40.984Z,969
2017-11-05T06:03:42.903Z,968.9
2017-11-05T06:04:44.736Z,969
2017-11-05T06:05:46.687Z,969
2017-11-05T06:06:48.704Z,969
2017-11-05T06:07:50.730Z,969
2017-11-05T06:08:52.969Z,969
2017-11-05T06:09:54.844Z,969.1
2017-11-05T06:10:56.717Z,969.1
2017-11-05T06:11:58.645Z,969.2
2017-11-05T06:13:00.621Z,969.3
2017-11-05T06:14:02.852Z,969.2
2017-11-05T06:15:04.775Z,969.3
2017-11-05T06:16:06.695Z,969.3
2017-11-05T06:17:08.878Z,969.3
2017-11-05T06:18:10.794Z,969.3
2017-11-05T06:19:12.711Z,969.3
2017-11-05T06:20:14.565Z,969.4
2017-11-05T06:21:16.488Z,969.4
2017-11-05T06:22:18.414Z,969.4
2017-11-05T06:23:20.312Z,969.4
2017-11-05T06:24:22.535Z,969.4
2017-11-05T06:25:27.332Z,969.4
2017-11-05T06:26:29.269Z,969.5
2017-11-05T06:27:31.154Z,969.4
2017-11-05T06:28:33.132Z,969.4
2017-11-05T06:29:35.044Z,969.4
2017-11-05T06:30:36.919Z,969.3
2017-11-05T06:31:38.843Z,969.3
2017-11-05T06:32:40.751Z,969.4
2017-11-05T06:33:42.634Z,969.4
2017-11-05T06:34:44.524Z,969.3
2017-11-05T06:35:46.394Z,969.3
2017-11-05T06:36:48.284Z,969.4
2017-11-05T06:37:50.256Z,969.4
2017-11-05T06:38:52.168Z,969.4
2017-11-05T06:39:54.068Z,969.5
2017-11-05T06:40:55.983Z,969.5
2017-11-05T06:41:57.890Z,969.5
2017-11-05T06:42:59.824Z,969.5
2017-11-05T06:44:01.727Z,969.5
2017-11-05T06:45:03.959Z,969.6
2017-11-05T06:46:05.858Z,969.6
2017-11-05T06:47:07.786Z,969.6
2017-11-05T06:48:09.721Z,969.6
2017-11-05T06:49:11.599Z,969.6
2017-11-05T06:50:13.827Z,969.6
2017-11-05T06:51:15.724Z,969.6
2017-11-05T06:52:17.619Z,969.5
2017-11-05T06:53:19.744Z,969.5
2017-11-05T06:54:21.629Z,969.5
2017-11-05T06:55:23.563Z,969.6
2017-11-05T06:56:25.458Z,969.6
2017-11-05T06:57:27.318Z,969.6
2017-11-05T06:58:29.270Z,969.6
2017-11-05T06:59:31.130Z,969.6
2017-11-05T07:00:33.400Z,969.7
2017-11-05T07:01:35.337Z,969.7
2017-11-05T07:02:37.333Z,969.7
2017-11-05T07:03:39.236Z,969.7
2017-11-05T07:04:41.128Z,969.8
2017-11-05T07:05:43.565Z,969.8
2017-11-05T07:06:45.536Z,969.8
2017-11-05T07:07:47.525Z,969.7
2017-11-05T07:08:49.481Z,969.8
2017-11-05T07:09:51.403Z,969.8
2017-11-05T07:10:53.330Z,969.8
2017-11-05T07:11:55.206Z,969.8
2017-11-05T07:12:57.059Z,969.8
2017-11-05T07:13:59.006Z,969.8
2017-11-05T07:15:00.984Z,969.8
2017-11-05T07:16:03.281Z,969.8
2017-11-05T07:17:05.190Z,969.8
2017-11-05T07:18:07.070Z,969.8
2017-11-05T07:19:09.017Z,969.8
2017-11-05T07:20:11.009Z,969.8
2017-11-05T07:21:13.175Z,969.9
2017-11-05T07:22:15.211Z,969.9
2017-11-05T07:23:17.185Z,969.9
2017-11-05T07:24:19.127Z,969.9
2017-11-05T07:25:20.987Z,969.9
2017-11-05T07:26:23.214Z,969.9
2017-11-05T07:27:25.118Z,969.9
2017-11-05T07:28:27.035Z,969.9
2017-11-05T07:29:28.906Z,969.9
2017-11-05T07:30:30.755Z,969.9
2017-11-05T07:31:32.975Z,969.9
2017-11-05T07:32:34.928Z,969.9
2017-11-05T07:33:37.559Z,969.9
2017-11-05T07:34:39.484Z,970
2017-11-05T07:35:41.378Z,970
2017-11-05T07:36:43.694Z,970
2017-11-05T07:37:45.623Z,970
2017-11-05T07:38:47.589Z,970
2017-11-05T07:39:49.531Z,970
2017-11-05T07:40:51.400Z,969.9
2017-11-05T07:41:53.304Z,970
2017-11-05T07:42:55.358Z,970
2017-11-05T07:43:57.232Z,970
2017-11-05T07:44:59.162Z,970
2017-11-05T07:46:01.096Z,970.1
2017-11-05T07:47:03.058Z,970.1
2017-11-05T07:48:05.009Z,970
2017-11-05T07:49:06.925Z,970
2017-11-05T07:50:08.853Z,970.1
2017-11-05T07:51:10.689Z,970
2017-11-05T07:52:12.596Z,970
2017-11-05T07:53:14.604Z,970
2017-11-05T07:54:16.604Z,970
2017-11-05T07:55:18.638Z,970
2017-11-05T07:56:20.456Z,970
2017-11-05T07:57:22.436Z,970
2017-11-05T07:58:24.463Z,970
2017-11-05T07:59:26.380Z,970
2017-11-05T08:00:28.319Z,970
2017-11-05T08:01:30.272Z,970
2017-11-05T08:02:32.615Z,970
2017-11-05T08:03:34.509Z,970.1
2017-11-05T08:04:36.347Z,970.1
2017-11-05T08:05:38.428Z,970
2017-11-05T08:06:40.340Z,970
2017-11-05T08:07:42.212Z,970.1
2017-11-05T08:08:44.127Z,970.1
2017-11-05T08:09:46.113Z,970.1
2017-11-05T08:10:47.993Z,970
2017-11-05T08:11:49.938Z,970.1
2017-11-05T08:12:51.869Z,970.1
2017-11-05T08:13:53.758Z,970.1
2017-11-05T08:14:55.682Z,970.1
2017-11-05T08:15:57.614Z,970.1
2017-11-05T08:16:59.635Z,970.1
2017-11-05T08:18:01.953Z,969.9
2017-11-05T08:19:03.812Z,970
2017-11-05T08:20:05.721Z,970
2017-11-05T08:21:07.711Z,969.9
2017-11-05T08:22:09.610Z,970
2017-11-05T08:23:11.802Z,970
2017-11-05T08:24:13.742Z,970
2017-11-05T08:25:15.622Z,970
2017-11-05T08:26:17.587Z,970
2017-11-05T08:27:19.562Z,970
2017-11-05T08:28:21.855Z,970
2017-11-05T08:29:23.771Z,970
2017-11-05T08:30:25.715Z,970
2017-11-05T08:31:27.674Z,970
2017-11-05T08:32:29.617Z,970
2017-11-05T08:33:31.510Z,969.9
2017-11-05T08:34:33.405Z,969.9
2017-11-05T08:35:35.337Z,969.9
2017-11-05T08:36:37.380Z,969.9
2017-11-05T08:37:39.298Z,969.9
2017-11-05T08:38:41.214Z,969.9
2017-11-05T08:39:43.165Z,969.9
2017-11-05T08:40:45.047Z,969.8
2017-11-05T08:41:46.923Z,969.8
2017-11-05T08:42:48.845Z,969.9
2017-11-05T08:43:50.772Z,969.9
2017-11-05T08:44:52.654Z,969.9
2017-11-05T08:45:54.564Z,969.9
2017-11-05T08:46:56.540Z,969.8
2017-11-05T08:47:58.473Z,969.8
2017-11-05T08:49:00.719Z,969.8
2017-11-05T08:50:02.682Z,969.8
2017-11-05T08:51:04.591Z,969.9
2017-11-05T08:52:06.492Z,969.8
2017-11-05T08:53:08.554Z,969.9
2017-11-05T08:54:10.462Z,969.9
2017-11-05T08:55:12.507Z,969.9
2017-11-05T08:56:14.433Z,969.8
2017-11-05T08:57:16.364Z,969.9
2017-11-05T08:58:18.385Z,969.9
2017-11-05T08:59:20.365Z,969.9
2017-11-05T09:00:22.296Z,969.9
2017-11-05T09:01:24.244Z,970
2017-11-05T09:02:26.240Z,970
2017-11-05T09:03:28.186Z,970
2017-11-05T09:04:30.621Z,970
2017-11-05T09:05:32.585Z,970.1
2017-11-05T09:06:34.590Z,970.1
2017-11-05T09:07:36.669Z,970.2
2017-11-05T09:08:38.605Z,970.1
2017-11-05T09:09:40.972Z,970.1
2017-11-05T09:10:42.921Z,970.1
2017-11-05T09:11:44.871Z,970.1
2017-11-05T09:12:46.739Z,970.1
2017-11-05T09:13:48.680Z,970.1
2017-11-05T09:14:50.659Z,970.2
2017-11-05T09:15:52.572Z,970.2
2017-11-05T09:16:54.457Z,970.2
2017-11-05T09:17:56.409Z,970.2
2017-11-05T09:18:58.332Z,970.3
2017-11-05T09:20:00.372Z,970.3
2017-11-05T09:21:02.279Z,970.3
2017-11-05T09:22:04.172Z,970.3
2017-11-05T09:23:06.095Z,970.4
2017-11-05T09:24:08.080Z,970.4
2017-11-05T09:25:10.003Z,970.4
2017-11-05T09:26:12.065Z,970.4
2017-11-05T09:27:13.963Z,970.4
2017-11-05T09:28:15.896Z,970.4
2017-11-05T09:29:17.736Z,970.4
2017-11-05T09:30:19.987Z,970.4
2017-11-05T09:31:21.869Z,970.5
2017-11-05T09:32:23.822Z,970.4
2017-11-05T09:33:25.777Z,970.5
2017-11-05T09:34:27.698Z,970.4
2017-11-05T09:35:30.315Z,970.5
2017-11-05T09:36:32.333Z,970.4
2017-11-05T09:37:34.244Z,970.4
2017-11-05T09:38:36.168Z,970.4
2017-11-05T09:39:38.133Z,970.4
2017-11-05T09:40:40.055Z,970.4
2017-11-05T09:41:41.946Z,970.4
2017-11-05T09:42:43.828Z,970.5
2017-11-05T09:43:45.795Z,970.5
2017-11-05T09:44:47.697Z,970.5
2017-11-05T09:45:49.662Z,970.5
2017-11-05T09:46:51.580Z,970.5
2017-11-05T09:47:53.543Z,970.5
2017-11-05T09:48:55.508Z,970.5
2017-11-05T09:49:57.480Z,970.5
2017-11-05T09:50:59.444Z,970.4
2017-11-05T09:52:01.351Z,970.5
2017-11-05T09:53:03.245Z,970.5
2017-11-05T09:54:05.144Z,970.6
2017-11-05T09:55:07.079Z,970.6
2017-11-05T09:56:09.063Z,970.6
2017-11-05T09:57:11.032Z,970.6
2017-11-05T09:58:12.995Z,970.7
2017-11-05T09:59:15.079Z,970.7
2017-11-05T10:00:17.017Z,970.7
2017-11-05T10:01:19.063Z,970.7
2017-11-05T10:02:20.990Z,970.7
2017-11-05T10:03:22.902Z,970.7
2017-11-05T10:04:24.837Z,970.7
2017-11-05T10:05:26.763Z,970.8
2017-11-05T10:06:29.463Z,970.9
2017-11-05T10:07:31.400Z,970.9
2017-11-05T10:08:33.336Z,970.9
2017-11-05T10:09:35.204Z,970.9
2017-11-05T10:10:37.165Z,970.8
2017-11-05T10:11:39.111Z,970.9
2017-11-05T10:12:41.024Z,970.9
2017-11-05T10:13:42.921Z,970.9
2017-11-05T10:14:44.860Z,970.9
2017-11-05T10:15:47.054Z,970.9
2017-11-05T10:16:49.338Z,970.9
2017-11-05T10:17:51.257Z,970.8
2017-11-05T10:18:53.174Z,970.8
2017-11-05T10:19:55.144Z,970.8
2017-11-05T10:20:57.046Z,970.8
2017-11-05T10:21:59.017Z,970.9
2017-11-05T10:23:00.964Z,970.8
2017-11-05T10:24:02.994Z,970.8
2017-11-05T10:25:04.912Z,970.8
2017-11-05T10:26:07.124Z,970.8
2017-11-05T10:27:09.316Z,970.8
2017-11-05T10:28:11.278Z,970.8
2017-11-05T10:29:13.231Z,970.9
2017-11-05T10:30:15.108Z,970.9
2017-11-05T10:31:17.029Z,970.9
2017-11-05T10:32:19.233Z,970.9
2017-11-05T10:33:21.189Z,971
2017-11-05T10:34:23.250Z,971
2017-11-05T10:35:25.126Z,971
2017-11-05T10:36:27.024Z,970.9
2017-11-05T10:37:28.905Z,970.9
2017-11-05T10:38:30.781Z,970.9
2017-11-05T10:39:32.644Z,970.9
2017-11-05T10:40:34.548Z,971
2017-11-05T10:41:36.411Z,970.9
2017-11-05T10:42:38.714Z,970.9
2017-11-05T10:43:40.598Z,971
2017-11-05T10:44:42.534Z,970.9
2017-11-05T10:45:44.437Z,970.9
2017-11-05T10:46:46.287Z,971
2017-11-05T10:47:48.615Z,970.9
2017-11-05T10:48:50.503Z,971
2017-11-05T10:49:52.421Z,971.1
2017-11-05T10:50:54.396Z,971.1
2017-11-05T10:51:56.338Z,971.1
2017-11-05T10:52:58.355Z,971.2
2017-11-05T10:54:00.278Z,971
2017-11-05T10:55:02.213Z,971.1
2017-11-05T10:56:04.255Z,971.1
2017-11-05T10:57:06.435Z,971.1
2017-11-05T10:58:08.421Z,971
2017-11-05T10:59:10.486Z,971.1
2017-11-05T11:00:12.551Z,971.2
2017-11-05T11:01:14.423Z,971.2
2017-11-05T11:02:16.379Z,971.3
2017-11-05T11:03:18.360Z,971.2
2017-11-05T11:04:20.247Z,971.3
2017-11-05T11:05:22.351Z,971.2
2017-11-05T11:06:24.318Z,971.3
2017-11-05T11:07:26.692Z,971.3
2017-11-05T11:08:28.659Z,971.3
2017-11-05T11:09:30.578Z,971.4
2017-11-05T11:10:32.513Z,971.4
2017-11-05T11:11:34.609Z,971.4
2017-11-05T11:12:36.541Z,971.4
2017-11-05T11:13:38.526Z,971.4
2017-11-05T11:14:40.413Z,971.4
2017-11-05T11:15:42.403Z,971.4
2017-11-05T11:16:44.344Z,971.4
2017-11-05T11:17:46.329Z,971.5
2017-11-05T11:18:48.283Z,971.4
2017-11-05T11:19:50.302Z,971.4
2017-11-05T11:20:52.264Z,971.6
2017-11-05T11:21:54.279Z,971.5
2017-11-05T11:22:56.187Z,971.6
2017-11-05T11:23:58.196Z,971.6
2017-11-05T11:25:00.087Z,971.6
2017-11-05T11:26:02.031Z,971.7
2017-11-05T11:27:03.996Z,971.6
2017-11-05T11:28:05.901Z,971.7
2017-11-05T11:29:07.831Z,971.7
2017-11-05T11:30:09.703Z,971.6
2017-11-05T11:31:11.690Z,971.7
2017-11-05T11:32:13.840Z,971.7
2017-11-05T11:33:15.816Z,971.7
2017-11-05T11:34:17.801Z,971.7
2017-11-05T11:35:19.732Z,971.8
2017-11-05T11:36:21.716Z,971.7
2017-11-05T11:37:23.994Z,971.8
2017-11-05T11:38:25.904Z,971.7
2017-11-05T11:39:27.868Z,971.8
2017-11-05T11:40:29.760Z,971.7
2017-11-05T11:41:31.681Z,971.8
2017-11-05T11:42:33.683Z,971.8
2017-11-05T11:43:35.646Z,971.8
2017-11-05T11:44:37.616Z,971.9
2017-11-05T11:45:39.553Z,971.9
2017-11-05T11:46:41.541Z,971.9
2017-11-05T11:47:43.587Z,972
2017-11-05T11:48:46.050Z,971.9
2017-11-05T11:49:48.370Z,971.8
2017-11-05T11:50:50.546Z,971.9
2017-11-05T11:51:52.457Z,972
2017-11-05T11:52:54.459Z,971.9
2017-11-05T11:53:56.438Z,971.9
2017-11-05T11:54:58.398Z,971.9
2017-11-05T11:56:00.395Z,972
2017-11-05T11:57:02.328Z,971.9
2017-11-05T11:58:04.316Z,972
2017-11-05T11:59:06.433Z,972
2017-11-05T12:00:08.446Z,972
2017-11-05T12:01:10.442Z,972.1
2017-11-05T12:02:12.508Z,972.1
2017-11-05T12:03:14.463Z,972
2017-11-05T12:04:16.471Z,972
2017-11-05T12:05:18.578Z,972.1
2017-11-05T12:06:20.657Z,972.1
2017-11-05T12:07:22.626Z,972.1
2017-11-05T12:08:24.827Z,972.1
2017-11-05T12:09:26.800Z,972.1
2017-11-05T12:10:28.893Z,972.1
2017-11-05T12:11:30.906Z,972.2
2017-11-05T12:12:33.127Z,972.1
2017-11-05T12:13:35.196Z,972.1
2017-11-05T12:14:37.160Z,972.2
2017-11-05T12:15:39.193Z,972.3
2017-11-05T12:16:41.286Z,972.3
2017-11-05T12:17:43.367Z,972.3
2017-11-05T12:18:45.347Z,972.3
2017-11-05T12:19:47.330Z,972.3
2017-11-05T12:20:49.355Z,972.3
2017-11-05T12:21:51.305Z,972.3
2017-11-05T12:22:53.351Z,972.3
2017-11-05T12:23:55.318Z,972.4
2017-11-05T12:24:57.314Z,972.4
2017-11-05T12:25:59.352Z,972.3
2017-11-05T12:27:01.415Z,972.3
2017-11-05T12:28:03.413Z,972.4
2017-11-05T12:29:05.499Z,972.5
2017-11-05T12:30:07.626Z,972.5
2017-11-05T12:31:09.701Z,972.4
2017-11-05T12:32:11.870Z,972.5
2017-11-05T12:33:13.928Z,972.5
2017-11-05T12:34:16.144Z,972.5
2017-11-05T12:35:18.152Z,972.4
2017-11-05T12:36:20.203Z,972.4
2017-11-05T12:37:22.147Z,972.4
2017-11-05T12:38:24.200Z,972.5
2017-11-05T12:39:26.206Z,972.6
2017-11-05T12:40:28.340Z,972.5
2017-11-05T12:41:30.426Z,972.5
2017-11-05T12:42:32.532Z,972.5
2017-11-05T12:43:34.744Z,972.5
2017-11-05T12:44:36.897Z,972.5
2017-11-05T12:45:38.977Z,972.6
2017-11-05T12:46:40.889Z,972.6
2017-11-05T12:47:42.895Z,972.6
2017-11-05T12:48:44.888Z,972.5
2017-11-05T12:49:46.812Z,972.6
2017-11-05T12:50:48.831Z,972.5
2017-11-05T12:51:50.961Z,972.7
2017-11-05T12:52:52.963Z,972.7
2017-11-05T12:53:55.203Z,972.7
2017-11-05T12:54:57.156Z,972.6
2017-11-05T12:55:59.090Z,972.6
2017-11-05T12:57:01.273Z,972.6
2017-11-05T12:58:03.291Z,972.7
2017-11-05T12:59:05.239Z,972.6
2017-11-05T13:00:07.228Z,972.6
2017-11-05T13:01:09.184Z,972.7
2017-11-05T13:02:14.905Z,972.6
2017-11-05T13:03:16.834Z,972.7
2017-11-05T13:04:18.732Z,972.5
2017-11-05T13:05:20.683Z,972.6
2017-11-05T13:06:22.665Z,972.6
2017-11-05T13:07:24.603Z,972.6
2017-11-05T13:08:26.519Z,972.6
2017-11-05T13:09:28.459Z,972.6
2017-11-05T13:10:30.581Z,972.7
2017-11-05T13:11:32.546Z,972.7
2017-11-05T13:12:34.569Z,972.6
2017-11-05T13:13:36.551Z,972.6
2017-11-05T13:14:38.595Z,972.7
2017-11-05T13:15:40.517Z,972.7
2017-11-05T13:16:42.531Z,972.7
2017-11-05T13:17:44.623Z,972.7
2017-11-05T13:18:46.598Z,972.7
2017-11-05T13:19:48.489Z,972.7
2017-11-05T13:20:50.510Z,972.7
2017-11-05T13:21:52.451Z,972.7
2017-11-05T13:22:54.370Z,972.8
2017-11-05T13:23:56.316Z,972.9
2017-11-05T13:24:58.332Z,972.8
2017-11-05T13:26:00.266Z,972.9